Flight Track Log - Related Links

Times and Time Zones

All times are in EDT time to prevent confusion due to time zone crossing. See the ASQ5102 flight status page for this flight to view local times or setup timezone preferences in your user account.

Time Position Orientation Groundspeed Altitude Reporting Facility
EDT Latitude Longitude Course Direction KTS MPH feet Rate Location/Type
Thu 01:09:41 PM 33.6500 -84.4500 270° West 158 182 2,200  Level Atlanta TRACON
Thu 01:10:41 PM 33.6500 -84.5167 270° West 218 251 4,300 2,238 Climbing Atlanta TRACON
Thu 01:11:47 PM 33.6667 -84.6167 281° West 267 307 6,900 2,497 Climbing Atlanta TRACON
Thu 01:13:58 PM 33.6478 -84.8000 263° West 281 323 12,500 2,450 Climbing Atlanta Center
Thu 01:14:58 PM 33.6119 -84.8894 244° Southwest 296 341 14,700 1,850 Climbing Atlanta Center
Thu 01:15:00 PM 33.8001 -84.3857 270° West  Level FlightAware Approximate
Thu 01:15:58 PM 33.5714 -84.9836 243° Southwest 302 348 16,200  Level Atlanta Center
Thu 01:16:58 PM 33.5311 -85.0831 244° Southwest 315 362 17,700 900 Climbing Atlanta Center
Thu 01:17:58 PM 33.4883 -85.1872 244° Southwest 329 379 18,000 150 Climbing Atlanta Center
Thu 01:18:58 PM 33.4581 -85.3086 253° West 369 425 18,000  Level Atlanta Center
Thu 01:19:58 PM 33.4358 -85.4228 257° West 387 445 18,000  Level Atlanta Center
Thu 01:20:58 PM 33.4072 -85.5592 256° West 409 471 18,000  Level Atlanta Center
Thu 01:21:58 PM 33.3783 -85.6906 255° West 415 478 18,000  Level Atlanta Center
Thu 01:22:58 PM 33.2831 -85.7758 217° Southwest 381 438 18,000  Level Atlanta Center
Thu 01:23:58 PM 33.1800 -85.8408 208° Southwest 396 456 18,000  Level Atlanta Center
Thu 01:24:58 PM 33.0831 -85.9031 208° Southwest 401 461 18,000  Level Atlanta Center
Thu 01:25:58 PM 32.9839 -85.9656 208° Southwest 401 461 18,000 -250 Level Atlanta Center
Thu 01:26:58 PM 32.8847 -86.0275 208° Southwest 401 461 17,500 -750 Descending Atlanta Center
Thu 01:27:58 PM 32.7817 -86.0919 208° Southwest 407 468 16,500 -1,300 Descending Atlanta Center
Thu 01:28:58 PM 32.6825 -86.1489 206° Southwest 412 474 14,900 -1,650 Descending Atlanta Center
Thu 01:29:58 PM 32.5861 -86.1761 193° South 388 447 13,200 -1,850 Descending Atlanta Center
Thu 01:30:58 PM 32.5000 -86.1986 192° South 350 403 11,200 -2,150 Descending Atlanta Center
Thu 01:31:58 PM 32.4244 -86.2214 194° South 314 361 8,900 -2,100 Descending Atlanta Center
Thu 01:32:58 PM 32.3572 -86.2444 196° South 282 325 7,000 -1,850 Descending Atlanta Center
Thu 01:33:58 PM 32.3089 -86.2703 204° Southwest 208 239 5,200 -2,150 Descending Atlanta Center
Thu 01:34:58 PM 32.2994 -86.3192 257° West 174 200 2,700 -2,350 Descending Atlanta Center
Thu 01:35:58 PM 32.2986 -86.3683 269° West 159 183 500 -2,200 Descending Atlanta Center
Thu 01:37:00 PM 32.3000 -86.3833 209° Southwest  Level FlightAware Approximate

Login

Don't have an account? Register now (free) for customized features, flight alerts, and more!